Aviation Digital Data Service (ADDS)

Output produced by METARs form (0556 UTC 18 January 2018)
found at http://www.aviationweather.gov/adds/metars/
 
KRWF 180553Z AUTO 24011KT 10SM CLR M04/M08 A3004 RMK AO2 SLP189 T10441083 11033 21050 410061183 56012
KMSP 180553Z 23008KT 10SM CLR M04/M09 A3003 RMK AO2 SLP184 4/004 T10441089 11028 21044 410281183 56009